Seinäjoki, Suomi

26. marraskuuta 2014 klo 07:01 (EET) (GMT +0200)
Seinajoki | Change Station
CLOSE
Current Station
Airport
Location: Seinajoki,
Korkeus: 289 ft
Lähimmät sääasemat

Kork 289 ft 62.69 °N, 22.83 °E | Updated 11 minutes ago

Light Drizzle
Tihkusadetta
37 °F
Tuntuu kuin 35 °F
N
4
Tuuli Suunnaltaan vaihteleva Tuuli ilmansuunnasta Etelän ja lounaan välinen

Tänään
Korkea -- | Matala -- °F
--% Sateen mahd.
Eilen
Korkea -- | Matala -- °F
Precip. -- tuumaa
9:15 AM 3:15 PM
Kasvava sirppi, 16% visible
Ilmanpaine 30.15 tuumaa
Näkyvyys 6.2 mailia
Pilviä Harvoja pilviä 400 ft
Vähäistä pilvisyyttä 600 ft
Pilvistä 2500 ft
Tuulen hyytävyys 35 °F
Kastepiste 37 °F
Ilmankosteus 100%
Sademäärä 0.00 tuumaa
Lumensyvyys Ei saatavilla
UV 0 / 12
Pollen Ei saatavilla
Ilmanlaatu Ei saatavilla
Flu Activity Ei saatavilla
METAR EFSI 260450Z AUTO 20003KT 9999 -DZ FEW004 SCT006 BKN025 03/03 Q1021

More Conditions Fewer Conditions

Ilmanpaine 30.15 tuumaa
Näkyvyys 6.2 mailia
Pilviä Harvoja pilviä 400 ft
Vähäistä pilvisyyttä 600 ft
Pilvistä 2500 ft
Tuulen hyytävyys 35 °F
Kastepiste 37 °F
Ilmankosteus 100%
Sademäärä 0.00 tuumaa
Lumensyvyys Ei saatavilla
UV 0 / 12
Pollen Ei saatavilla
Ilmanlaatu Ei saatavilla
Flu Activity Ei saatavilla
METAR EFSI 260450Z AUTO 20003KT 9999 -DZ FEW004 SCT006 BKN025 03/03 Q1021

More Conditions Fewer Conditions

10-Day Weather Forecast

Almanac

Tähtitiede

Nov. 26, 2014 Nousuaika Laskuaika
Valoisa aika
Porvarillinen hämärä
Nauttinen hämärä
Astronominen hämärä
Kuu
Näkyvän valon pituus
Päivän pituus
Tomorrow will be .
, % of the Moon is Illuminated

Tämän päivän ennätykset

Country Highs Country Lows

Community

WunderPhotos

Upload Photos

1,773,686 photos uploaded!

WunderBlogs® & News

Nearby

Ilmanlaatu

  Ilmanlaatu AQ Index Pollutant
Not available.

Lumensyvyys

Station Depth Korkeus

Maanjäristysaktiivisuus

Paikkakunta Distance Mag. Time & Date
Minimum magnitude displayed is 2.5.

Coastal Water Temperatures

Paikka Lämpötila

Lähimmät sääasemat